createdAt,value
2023-03-21T00:03:17.643Z,19.13
2023-03-21T00:07:20.516Z,20.87
2023-03-21T00:11:24.625Z,22.73
2023-03-21T00:15:39.880Z,23.97
2023-03-21T00:19:46.854Z,21.77
2023-03-21T00:23:49.538Z,23.43
2023-03-21T00:28:07.498Z,24.00
2023-03-21T00:32:11.195Z,22.67
2023-03-21T00:36:14.323Z,23.00
2023-03-21T00:40:26.709Z,19.17
2023-03-21T00:44:36.965Z,21.73
2023-03-21T00:48:39.665Z,24.93
2023-03-21T00:52:43.447Z,25.97
2023-03-21T00:56:46.187Z,22.47
2023-03-21T01:00:50.564Z,22.37
2023-03-21T01:04:53.975Z,21.90
2023-03-21T01:08:56.889Z,20.90
2023-03-21T01:12:59.612Z,23.30
2023-03-21T01:17:07.130Z,19.97
2023-03-21T01:21:12.364Z,21.73
2023-03-21T01:25:22.405Z,24.43
2023-03-21T01:29:25.624Z,23.70
2023-03-21T01:33:30.606Z,22.40
2023-03-21T01:37:33.790Z,19.93
2023-03-21T01:41:43.316Z,23.17
2023-03-21T01:46:27.325Z,24.13
2023-03-21T01:50:57.275Z,23.57
2023-03-21T01:55:15.874Z,22.77
2023-03-21T01:59:31.544Z,22.87
2023-03-21T02:03:51.225Z,20.50
2023-03-21T02:08:36.750Z,22.83
2023-03-21T02:12:44.951Z,23.43
2023-03-21T02:16:54.871Z,22.23
2023-03-21T02:21:22.878Z,24.50
2023-03-21T02:25:56.569Z,29.67
2023-03-21T02:30:50.878Z,25.50
2023-03-21T02:35:11.717Z,21.33
2023-03-21T02:39:23.770Z,25.03
2023-03-21T02:43:37.203Z,22.37
2023-03-21T02:47:43.719Z,21.30
2023-03-21T02:51:48.610Z,23.80
2023-03-21T02:55:54.980Z,27.20
2023-03-21T03:00:04.939Z,24.90
2023-03-21T03:04:26.620Z,28.70
2023-03-21T03:08:52.872Z,29.83
2023-03-21T03:13:16.981Z,28.73
2023-03-21T03:17:32.714Z,27.67
2023-03-21T03:21:42.225Z,32.13
2023-03-21T03:25:49.083Z,25.70
2023-03-21T03:29:56.034Z,30.70
2023-03-21T03:34:07.515Z,29.23
2023-03-21T03:38:15.195Z,30.47
2023-03-21T03:42:28.418Z,30.90
2023-03-21T03:46:53.691Z,28.97
2023-03-21T03:51:03.495Z,29.60
2023-03-21T03:55:39.063Z,30.83
2023-03-21T03:59:48.043Z,30.43
2023-03-21T04:04:12.914Z,31.40
2023-03-21T04:08:18.067Z,27.57
2023-03-21T04:12:26.764Z,31.73
2023-03-21T04:16:55.583Z,33.80
2023-03-21T04:20:59.756Z,32.50
2023-03-21T04:25:06.042Z,30.03
2023-03-21T04:29:10.076Z,29.53
2023-03-21T04:33:31.153Z,33.07
2023-03-21T04:37:35.664Z,26.10
2023-03-21T04:41:40.037Z,25.57
2023-03-21T04:45:42.849Z,25.33
2023-03-21T04:49:45.714Z,25.00
2023-03-21T04:53:52.443Z,24.50
2023-03-21T04:57:55.565Z,22.83
2023-03-21T05:01:58.667Z,20.63
2023-03-21T05:06:01.590Z,22.43
2023-03-21T05:10:06.921Z,23.37
2023-03-21T05:14:12.613Z,21.53
2023-03-21T05:18:15.287Z,20.67
2023-03-21T05:22:40.316Z,24.50
2023-03-21T05:26:50.621Z,25.07
2023-03-21T05:30:55.050Z,20.80
2023-03-21T05:34:57.964Z,22.80
2023-03-21T05:39:01.840Z,16.67
2023-03-21T05:43:07.273Z,21.50
2023-03-21T05:47:12.120Z,20.53
2023-03-21T05:51:20.043Z,22.17
2023-03-21T05:55:22.966Z,21.33
2023-03-21T05:59:27.679Z,19.87
2023-03-21T06:03:33.023Z,21.63
2023-03-21T06:07:41.680Z,19.60
2023-03-21T06:11:48.501Z,19.00
2023-03-21T06:15:58.375Z,22.70
2023-03-21T06:20:04.821Z,17.43
2023-03-21T06:24:12.239Z,22.80
2023-03-21T06:28:16.635Z,20.53
2023-03-21T06:32:21.376Z,20.93
2023-03-21T06:36:29.326Z,19.13
2023-03-21T06:40:32.189Z,17.23
2023-03-21T06:44:35.081Z,23.83
2023-03-21T06:48:45.288Z,23.23
2023-03-21T06:52:48.423Z,22.03
2023-03-21T06:56:51.857Z,20.40
2023-03-21T07:01:03.034Z,22.00
2023-03-21T07:05:10.347Z,23.17
2023-03-21T07:09:13.366Z,22.43
2023-03-21T07:13:16.226Z,18.83
2023-03-21T07:17:29.013Z,20.33
2023-03-21T07:21:34.624Z,19.63
2023-03-21T07:25:37.840Z,21.17
2023-03-21T07:29:40.972Z,21.27
2023-03-21T07:33:44.321Z,20.03
2023-03-21T07:37:48.478Z,20.37
2023-03-21T07:41:52.742Z,19.63
2023-03-21T07:46:04.688Z,18.77
2023-03-21T07:50:07.949Z,19.53
2023-03-21T07:54:12.102Z,21.53
2023-03-21T07:58:15.002Z,17.67
2023-03-21T08:02:18.812Z,16.93
2023-03-21T08:06:21.749Z,22.33
2023-03-21T08:10:26.536Z,19.47
2023-03-21T08:14:29.313Z,16.23
2023-03-21T08:18:32.093Z,17.73
2023-03-21T08:22:34.914Z,21.13
2023-03-21T08:26:39.169Z,17.87
2023-03-21T08:30:41.917Z,17.40
2023-03-21T08:34:44.612Z,14.87
2023-03-21T08:38:48.560Z,15.33
2023-03-21T08:42:52.618Z,22.70
2023-03-21T08:46:55.698Z,19.57
2023-03-21T08:51:01.337Z,21.27
2023-03-21T08:55:04.521Z,15.03
2023-03-21T08:59:10.034Z,16.47
2023-03-21T09:03:12.772Z,16.27
2023-03-21T09:07:17.966Z,14.67
2023-03-21T09:11:20.810Z,15.40
2023-03-21T09:15:28.841Z,17.63
2023-03-21T09:19:31.941Z,18.43
2023-03-21T09:23:34.664Z,16.40
2023-03-21T09:27:37.849Z,14.63
2023-03-21T09:31:43.929Z,15.83
2023-03-21T09:35:46.848Z,14.57
2023-03-21T09:39:51.324Z,15.23
2023-03-21T09:44:05.052Z,10.90
2023-03-21T09:48:22.456Z,12.80
2023-03-21T09:52:28.958Z,12.73
2023-03-21T09:56:31.800Z,13.43
2023-03-21T10:00:38.898Z,11.40
2023-03-21T10:04:44.122Z,13.00
2023-03-21T10:08:49.461Z,11.73
2023-03-21T10:45:37.009Z,11.43
2023-03-21T11:08:27.258Z,14.40
2023-03-21T11:12:31.616Z,10.73
2023-03-21T11:16:40.510Z,11.67
2023-03-21T11:20:49.555Z,15.07
2023-03-21T11:24:58.366Z,13.23
2023-03-21T11:29:01.879Z,12.27
2023-03-21T11:33:07.681Z,13.20
2023-03-21T11:37:20.782Z,13.47
2023-03-21T11:41:26.519Z,12.23
2023-03-21T11:45:30.920Z,17.97
2023-03-21T11:49:33.777Z,11.53
2023-03-21T11:53:46.614Z,16.03
2023-03-21T11:58:13.463Z,17.00
2023-03-21T12:02:37.752Z,12.37
2023-03-21T12:06:46.814Z,13.93
2023-03-21T12:10:57.076Z,11.53
2023-03-21T12:15:07.156Z,10.97
2023-03-21T12:19:20.873Z,9.23
2023-03-21T12:23:43.668Z,9.90
2023-03-21T12:28:03.657Z,11.73
2023-03-21T12:32:18.707Z,10.97
2023-03-21T12:36:34.125Z,14.03
2023-03-21T12:40:51.719Z,16.30
2023-03-21T12:45:04.097Z,12.97
2023-03-21T12:49:17.702Z,13.17
2023-03-21T12:53:35.558Z,15.80
2023-03-21T12:57:51.098Z,15.77
2023-03-21T13:02:02.774Z,10.87
2023-03-21T13:06:08.351Z,12.33
2023-03-21T13:10:16.008Z,9.93
2023-03-21T13:14:25.042Z,12.93
2023-03-21T13:18:36.617Z,9.73
2023-03-21T13:22:40.795Z,10.10
2023-03-21T13:26:49.796Z,9.23
2023-03-21T13:30:53.143Z,10.03
2023-03-21T13:34:57.189Z,11.13
2023-03-21T13:39:05.555Z,8.83
2023-03-21T13:43:41.001Z,8.93
2023-03-21T13:47:54.389Z,12.93
2023-03-21T13:51:59.033Z,9.83
2023-03-21T13:56:24.025Z,9.63
2023-03-21T14:00:30.404Z,9.63
2023-03-21T14:04:42.691Z,10.17
2023-03-21T14:08:57.201Z,8.37
2023-03-21T14:13:01.918Z,9.23
2023-03-21T14:17:13.120Z,9.43
2023-03-21T14:21:23.790Z,11.80
2023-03-21T14:25:40.951Z,11.43
2023-03-21T14:29:51.380Z,11.60
2023-03-21T14:33:57.759Z,8.97
2023-03-21T14:38:02.198Z,9.83
2023-03-21T14:42:07.376Z,13.87
2023-03-21T14:46:14.369Z,8.37
2023-03-21T14:50:17.144Z,10.17
2023-03-21T14:54:20.681Z,9.90
2023-03-21T14:58:23.432Z,10.00
2023-03-21T15:02:30.257Z,10.17
2023-03-21T15:06:33.128Z,9.90
2023-03-21T15:10:35.874Z,9.90
2023-03-21T15:14:39.056Z,10.27
2023-03-21T15:18:44.458Z,9.10
2023-03-21T15:22:51.484Z,8.53
2023-03-21T15:26:59.004Z,9.53
2023-03-21T15:31:02.046Z,8.80
2023-03-21T15:35:14.302Z,8.20
2023-03-21T15:39:19.810Z,8.57
2023-03-21T15:43:22.505Z,8.90
2023-03-21T15:47:40.542Z,13.50
2023-03-21T15:51:48.570Z,8.50
2023-03-21T15:55:56.860Z,9.70
2023-03-21T16:00:09.105Z,10.63
2023-03-21T16:04:18.350Z,9.83
2023-03-21T16:08:27.304Z,9.27
2023-03-21T16:12:30.401Z,8.73
2023-03-21T16:16:33.250Z,7.80
2023-03-21T16:20:40.972Z,9.03
2023-03-21T16:24:45.148Z,6.53
2023-03-21T16:28:48.214Z,6.33
2023-03-21T16:32:51.523Z,7.20
2023-03-21T16:36:54.276Z,6.50
2023-03-21T16:40:58.399Z,9.97
2023-03-21T16:45:01.210Z,7.50
2023-03-21T16:49:04.367Z,9.20
2023-03-21T16:53:07.098Z,7.00
2023-03-21T16:57:22.979Z,6.30
2023-03-21T17:01:28.211Z,8.30
2023-03-21T17:05:31.610Z,7.43
2023-03-21T17:09:34.303Z,8.00
2023-03-21T17:13:38.327Z,7.87
2023-03-21T17:17:41.408Z,10.67
2023-03-21T17:21:45.722Z,8.03
2023-03-21T17:25:48.425Z,7.93
2023-03-21T17:29:52.540Z,8.60
2023-03-21T17:33:55.333Z,9.33
2023-03-21T17:37:58.656Z,7.80
2023-03-21T17:42:01.487Z,7.13
2023-03-21T17:46:06.564Z,10.27
2023-03-21T17:50:17.581Z,9.70
2023-03-21T17:54:20.566Z,8.70
2023-03-21T17:58:26.182Z,7.13
2023-03-21T18:02:30.782Z,9.07
2023-03-21T18:06:35.186Z,9.13
2023-03-21T18:10:38.418Z,9.40
2023-03-21T18:14:41.297Z,13.47
2023-03-21T18:18:46.787Z,8.33
2023-03-21T18:22:50.998Z,9.03
2023-03-21T18:26:54.516Z,7.77
2023-03-21T18:31:18.891Z,8.73
2023-03-21T18:35:22.361Z,7.93
2023-03-21T18:39:25.095Z,10.47
2023-03-21T18:44:00.755Z,9.30
2023-03-21T18:47:51.411Z,12.03
2023-03-21T18:51:55.737Z,9.60
2023-03-21T18:55:58.530Z,10.67
2023-03-21T19:00:01.845Z,9.40
2023-03-21T19:04:20.850Z,11.07
2023-03-21T19:08:27.178Z,8.53
2023-03-21T19:12:30.409Z,8.63
2023-03-21T19:16:50.679Z,9.13
2023-03-21T19:20:58.544Z,9.13
2023-03-21T19:25:05.471Z,10.93
2023-03-21T19:29:08.518Z,8.17
2023-03-21T19:33:11.414Z,8.57
2023-03-21T19:37:14.073Z,11.40
2023-03-21T19:41:18.525Z,10.40
2023-03-21T19:45:21.539Z,9.63
2023-03-21T19:49:34.722Z,12.50
2023-03-21T19:53:46.884Z,12.20
2023-03-21T19:57:52.265Z,10.23
2023-03-21T20:01:58.553Z,13.27
2023-03-21T20:06:11.443Z,10.80
2023-03-21T20:10:14.401Z,12.30
2023-03-21T20:14:18.492Z,10.20
2023-03-21T20:18:23.940Z,10.03
2023-03-21T20:22:56.137Z,11.30
2023-03-21T20:26:53.476Z,11.20
2023-03-21T20:30:58.289Z,9.93
2023-03-21T20:35:13.666Z,10.70
2023-03-21T20:39:22.098Z,11.20
2023-03-21T20:47:49.621Z,15.47
2023-03-21T20:56:20.596Z,12.50
2023-03-21T21:00:24.610Z,14.77
2023-03-21T21:04:47.232Z,16.07
2023-03-21T21:08:55.480Z,13.77
2023-03-21T21:12:58.311Z,14.77
2023-03-21T21:17:07.699Z,14.03
2023-03-21T21:21:21.584Z,12.67
2023-03-21T21:25:25.197Z,13.40
2023-03-21T21:29:28.364Z,12.30
2023-03-21T21:33:34.266Z,16.37
2023-03-21T21:37:41.770Z,13.93
2023-03-21T21:41:44.692Z,14.47
2023-03-21T21:45:48.002Z,13.93
2023-03-21T21:49:50.673Z,14.87
2023-03-21T21:53:55.873Z,15.77
2023-03-21T21:57:58.961Z,14.07
2023-03-21T22:02:01.735Z,14.77
2023-03-21T22:06:05.141Z,16.43
2023-03-21T22:10:09.883Z,15.50
2023-03-21T22:14:12.760Z,20.03
2023-03-21T22:18:15.489Z,15.40
2023-03-21T22:22:18.269Z,14.57
2023-03-21T22:26:22.423Z,13.73
2023-03-21T22:30:25.234Z,13.43
2023-03-21T22:34:28.322Z,16.47
2023-03-21T22:38:31.012Z,15.53
2023-03-21T22:42:35.239Z,15.57
2023-03-21T22:46:37.975Z,15.90
2023-03-21T22:50:41.933Z,15.20
2023-03-21T22:54:45.832Z,15.27
2023-03-21T22:58:49.880Z,21.33
2023-03-21T23:02:52.581Z,16.13
2023-03-21T23:06:55.690Z,14.10
2023-03-21T23:10:58.494Z,16.47
2023-03-21T23:15:02.658Z,13.93
2023-03-21T23:19:06.132Z,13.40
2023-03-21T23:23:08.797Z,13.23
2023-03-21T23:27:11.499Z,14.73
2023-03-21T23:31:18.260Z,14.73
2023-03-21T23:35:21.010Z,12.43
2023-03-21T23:39:24.394Z,11.37
2023-03-21T23:43:27.495Z,12.47
2023-03-21T23:47:31.492Z,13.47
2023-03-21T23:51:34.197Z,11.10
2023-03-21T23:55:38.773Z,11.40
2023-03-21T23:59:41.512Z,12.60
